Latest Weather Observations for Hartz Mountains

IDT60801

Issued at 7:35 am EST Friday 25 April 2014 (issued every 30 minutes, with the page automatically refreshed every 10 minutes)

About weather observations | Map of weather stations | Latest weather observations for TAS | Other Formats
Station Details ID: 094191 Name: HARTZ MOUNTAIN (KEOGHS PIMPLE) Lat: -43.20 Lon: 146.77 Height: 831.0 m
Data from the previous 72 hours. | See also: Recent months at Hartz Mountains
Date/Time
EST
Temp
°C
App
Temp
°C
Dew
Point
Rel
Hum
%
Delta-T
°C
Wind Press
QNH
hPa
Press
MSL
hPa
Rain
since 9 am
mm
Dir
 
Spd
km/h
Gust
km/h
Spd
kts
Gust
kts
25/07:30am 2.8 -7.0 2.2 96 0.2 W 43 61 23 33 - - 1.4
25/07:00am 2.6 -6.1 1.9 95 0.3 W 37 50 20 27 - - 1.4
25/06:30am 2.4 -6.0 1.8 96 0.2 W 35 52 19 28 - - 1.4
25/06:00am 2.3 -7.2 1.6 95 0.3 W 41 59 22 32 - - 1.4
25/05:37am 2.3 -6.8 1.6 95 0.3 W 39 57 21 31 - - 1.4
25/05:30am 2.3 -6.8 1.6 95 0.3 W 39 54 21 29 - - 1.4
25/05:00am 2.4 -7.1 1.7 95 0.3 W 41 65 22 35 - - 1.4
25/04:30am 2.6 -7.5 1.4 92 0.5 W 44 72 24 39 - - 1.4
25/04:27am 2.3 -7.7 1.3 93 0.4 W 43 61 23 33 - - 1.4
25/04:00am 2.1 -7.5 1.1 93 0.4 W 41 57 22 31 - - 1.4
25/03:46am 2.1 -7.5 1.4 95 0.3 W 41 63 22 34 - - 1.4
25/03:30am 2.1 -7.5 1.2 94 0.4 W 41 54 22 29 - - 1.4
25/03:00am 1.7 -7.2 0.8 94 0.4 W 37 52 20 28 - - 1.4
25/02:47am 1.9 -7.0 0.7 92 0.5 W 37 57 20 31 - - 1.4
25/02:30am 1.7 -7.2 0.7 93 0.4 W 37 46 20 25 - - 1.2
25/02:00am 1.6 -7.3 1.0 96 0.2 W 37 46 20 25 - - 1.2
25/01:30am 1.7 -7.1 1.3 97 0.2 W 37 46 20 25 - - 1.2
25/01:00am 1.9 -6.6 1.2 95 0.3 W 35 48 19 26 - - 1.2
25/12:30am 1.9 -7.0 0.9 93 0.4 W 37 52 20 28 - - 1.2
25/12:00am 1.9 -6.6 0.7 92 0.5 W 35 48 19 26 - - 1.2
 
Date/Time
EST
Temp
°C
App
Temp
°C
Dew
Point
Rel
Hum
%
Delta-T
°C
Wind Press
QNH
hPa
Press
MSL
hPa
Rain
since 9 am
mm
Dir
 
Spd
km/h
Gust
km/h
Spd
kts
Gust
kts
24/11:30pm 2.0 -7.7 0.7 91 0.5 W 41 56 22 30 - - 1.2
24/11:00pm 1.8 -8.2 1.1 95 0.3 W 43 61 23 33 - - 1.2
24/10:30pm 1.8 -6.7 0.6 92 0.5 W 35 54 19 29 - - 1.2
24/10:00pm 1.6 -5.9 0.9 95 0.3 W 30 48 16 26 - - 1.2
24/09:58pm 1.6 -5.9 0.9 95 0.3 W 30 48 16 26 - - 1.2
24/09:30pm 1.9 -6.6 1.2 95 0.3 W 35 50 19 27 - - 1.2
24/09:00pm 1.8 -5.3 1.2 96 0.2 WNW 28 41 15 22 - - 1.2
24/08:30pm 1.5 -5.6 1.2 98 0.1 W 28 44 15 24 - - 1.2
24/08:00pm 1.7 -5.8 1.0 95 0.3 W 30 48 16 26 - - 1.0
24/07:30pm 1.5 -7.4 0.8 95 0.3 WSW 37 46 20 25 - - 1.0
24/07:00pm 1.2 -4.0 0.3 94 0.3 WSW 17 30 9 16 - - 1.0
24/06:30pm 1.0 -5.5 0.6 97 0.2 WSW 24 43 13 23 - - 1.0
24/06:01pm 0.8 -7.4 0.2 96 0.2 W 33 52 18 28 - - 1.0
24/06:00pm 0.8 -7.8 0.2 96 0.2 W 35 52 19 28 - - 1.0
24/05:30pm 0.6 -8.7 0.3 98 0.1 W 39 65 21 35 - - 1.0
24/05:00pm 0.5 -8.5 0.4 99 0.0 W 37 74 20 40 - - 1.0
24/04:30pm 0.2 -12.1 -0.1 98 0.1 W 54 76 29 41 - - 1.0
24/04:00pm 0.6 -10.8 0.5 99 0.0 WSW 50 72 27 39 - - 1.0
24/03:30pm 0.6 -9.8 -0.1 95 0.3 W 44 72 24 39 - - 1.0
24/03:00pm 1.1 -9.5 0.8 98 0.1 W 46 65 25 35 - - 1.0
24/02:44pm 0.4 -10.0 -0.3 95 0.3 W 44 82 24 44 - - 1.0
24/02:30pm 1.8 -6.8 0.3 90 0.6 W 35 63 19 34 - - 1.0
24/02:00pm 2.0 -6.6 0.4 89 0.6 W 35 61 19 33 - - 1.0
24/01:46pm 2.0 -7.7 0.8 92 0.5 W 41 70 22 38 - - 1.0
24/01:30pm 0.8 -6.4 0.7 99 0.0 W 28 48 15 26 - - 1.0
24/01:00pm 0.6 -7.7 -0.1 95 0.3 W 33 56 18 30 - - 1.0
24/12:30pm 1.9 -7.4 0.6 91 0.5 W 39 70 21 38 - - 1.0
24/12:00pm 1.9 -6.1 0.3 89 0.6 W 32 52 17 28 - - 0.6
24/11:52am 2.0 -7.0 -0.1 86 0.8 W 37 61 20 33 - - 0.6
24/11:43am 2.0 -8.1 0.2 88 0.7 WNW 43 70 23 38 - - 0.6
24/11:30am 2.4 -6.4 1.4 93 0.4 WSW 37 57 20 31 - - 0.6
24/11:19am 1.9 -5.3 1.0 94 0.4 W 28 52 15 28 - - 0.6
24/11:00am 2.2 -4.5 1.5 95 0.3 WSW 26 46 14 25 - - 0.6
24/10:31am 1.1 -6.1 0.8 98 0.1 W 28 56 15 30 - - 0.6
24/10:30am 1.1 -5.7 0.8 98 0.1 W 26 56 14 30 - - 0.6
24/10:00am 1.7 -6.2 1.1 96 0.2 W 32 56 17 30 - - 0.2
24/09:31am 1.2 -6.0 0.8 97 0.2 WSW 28 54 15 29 - - 0.0
24/09:30am 1.5 -5.2 1.2 98 0.1 WSW 26 54 14 29 - - 0.0
24/09:00am 1.6 -6.4 1.5 99 0.0 W 33 54 18 29 - - 7.6
24/08:52am 1.5 -5.6 1.4 99 0.0 W 28 52 15 28 - - 7.6
24/08:30am 2.2 -2.7 1.9 98 0.1 W 17 37 9 20 - - 6.8
24/08:00am 2.1 -6.3 1.7 97 0.2 WSW 35 61 19 33 - - 6.4
24/07:30am 2.3 -5.6 2.2 99 0.0 WSW 33 52 18 28 - - 6.4
24/07:04am 2.4 -4.5 2.4 100 0.0 W 28 48 15 26 - - 6.4
24/07:00am 2.3 -4.3 2.3 100 0.0 WSW 26 52 14 28 - - 6.4
24/06:48am 2.6 -7.3 2.6 100 0.0 WSW 44 63 24 34 - - 6.0
24/06:30am 3.1 -1.6 3.1 100 0.0 WSW 17 56 9 30 - - 6.0
24/06:05am 3.3 -4.8 3.3 100 0.0 WNW 35 54 19 29 - - 5.6
24/06:00am 3.2 -1.1 3.2 100 0.0 WNW 15 50 8 27 - - 5.6
24/05:30am 2.9 -6.0 2.9 100 0.0 WNW 39 63 21 34 - - 5.6
24/05:00am 2.8 -7.1 2.7 99 0.0 W 44 65 24 35 - - 5.6
24/04:33am 3.0 -7.3 2.9 99 0.0 WNW 46 82 25 44 - - 5.4
24/04:30am 3.0 -6.7 2.9 99 0.0 WNW 43 67 23 36 - - 5.4
24/04:29am 3.1 -6.8 3.0 99 0.0 WNW 44 67 24 36 - - 5.4
24/04:00am 3.8 -4.6 3.5 98 0.1 W 37 65 20 35 - - 4.2
24/03:30am 5.4 -3.1 5.1 98 0.1 WSW 39 72 21 39 - - 3.8
24/03:29am 5.7 -2.4 5.4 98 0.1 W 37 72 20 39 - - 3.8
24/03:23am 6.5 -0.1 6.2 98 0.1 NW 30 72 16 39 - - 3.4
24/03:14am 6.4 0.2 6.1 98 0.1 NW 28 46 15 25 - - 2.0
24/03:00am 6.3 0.4 6.0 98 0.1 NNW 26 41 14 22 - - 1.6
24/02:30am 6.2 0.7 5.9 98 0.1 NNW 24 39 13 21 - - 1.4
24/02:00am 6.3 1.2 5.9 97 0.2 NNW 22 35 12 19 - - 1.0
24/01:30am 6.2 -0.5 5.6 96 0.3 NNW 30 50 16 27 - - 1.0
24/01:08am 6.3 -0.4 5.7 96 0.3 NNW 30 48 16 26 - - 0.8
24/01:00am 6.4 -0.8 5.8 96 0.3 NNW 33 48 18 26 - - 0.6
24/12:47am 6.5 -0.2 5.8 95 0.3 NNW 30 48 16 26 - - 0.4
24/12:30am 6.4 0.1 5.5 94 0.4 NNW 28 43 15 23 - - 0.2
24/12:00am 6.6 1.0 5.2 91 0.6 NNW 24 41 13 22 - - 0.0
 
Date/Time
EST
Temp
°C
App
Temp
°C
Dew
Point
Rel
Hum
%
Delta-T
°C
Wind Press
QNH
hPa
Press
MSL
hPa
Rain
since 9 am
mm
Dir
 
Spd
km/h
Gust
km/h
Spd
kts
Gust
kts
23/11:30pm 6.9 -0.3 4.9 87 0.9 NW 32 50 17 27 - - 0.0
23/11:25pm 6.9 -0.3 4.9 87 0.9 NW 32 50 17 27 - - 0.0
23/11:00pm 6.7 0.6 4.9 88 0.8 NW 26 41 14 22 - - 0.0
23/10:30pm 6.7 1.7 4.7 87 0.9 NW 20 32 11 17 - - 0.0
23/10:00pm 6.8 0.3 4.6 86 1.0 WNW 28 39 15 21 - - 0.0
23/09:30pm 6.8 -0.5 4.5 85 1.1 WNW 32 41 17 22 - - 0.0
23/09:00pm 6.9 -2.2 4.2 83 1.2 WNW 41 54 22 29 - - 0.0
23/08:30pm 6.3 -2.4 4.1 86 1.0 NW 39 57 21 31 - - 0.0
23/08:22pm 6.5 -1.8 4.2 85 1.0 NW 37 57 20 31 - - 0.0
23/08:00pm 6.2 -2.2 3.9 85 1.0 NW 37 46 20 25 - - 0.0
23/07:30pm 6.3 -1.7 3.8 84 1.1 WNW 35 46 19 25 - - 0.0
23/07:12pm 6.1 -1.0 3.8 85 1.0 NW 30 48 16 26 - - 0.0
23/07:00pm 6.1 -1.6 3.6 84 1.1 NW 33 46 18 25 - - 0.0
23/06:45pm 6.1 -0.6 3.6 84 1.1 NW 28 48 15 26 - - 0.0
23/06:30pm 6.1 -1.3 3.8 85 1.0 NW 32 43 17 23 - - 0.0
23/06:00pm 6.2 -1.2 4.0 86 1.0 NW 32 44 17 24 - - 0.0
23/05:30pm 6.4 -0.2 4.2 86 1.0 NW 28 39 15 21 - - 0.0
23/05:00pm 7.1 -0.2 4.6 84 1.1 NW 32 43 17 23 - - 0.0
23/04:30pm 7.3 0.1 4.8 84 1.2 NW 32 41 17 22 - - 0.0
23/04:00pm 7.6 0.7 4.7 82 1.3 WNW 30 41 16 22 - - 0.0
23/03:30pm 7.7 0.8 4.8 82 1.3 WNW 30 43 16 23 - - 0.0
23/03:00pm 7.5 1.1 5.1 85 1.1 NW 28 37 15 20 - - 0.0
23/02:30pm 7.5 2.2 4.8 83 1.2 NW 22 35 12 19 - - 0.0
23/02:00pm 7.6 0.7 4.7 82 1.3 NW 30 41 16 22 - - 0.0
23/01:30pm 7.9 -0.3 4.5 79 1.6 WNW 37 52 20 28 - - 0.0
23/01:00pm 7.6 -0.6 4.6 81 1.4 WNW 37 52 20 28 - - 0.0
23/12:34pm 7.4 0.8 4.2 80 1.5 WNW 28 46 15 25 - - 0.0
23/12:30pm 7.5 0.9 4.3 80 1.5 WNW 28 41 15 22 - - 0.0
23/12:00pm 7.2 1.4 4.5 83 1.2 WNW 24 35 13 19 - - 0.0
23/11:30am 7.2 1.0 4.5 83 1.2 W 26 35 14 19 - - 0.0
23/11:00am 6.9 0.0 4.7 86 1.0 WNW 30 41 16 22 - - 0.0
23/10:30am 6.2 -0.8 4.2 87 0.9 NW 30 41 16 22 - - 0.0
23/10:00am 6.1 -0.6 3.9 86 1.0 W 28 35 15 19 - - 0.0
23/09:30am 5.2 -2.5 3.2 87 0.9 WNW 33 43 18 23 - - 0.0
23/09:00am 4.7 -3.8 3.4 91 0.6 W 37 46 20 25 - - 1.6
23/08:30am 4.2 -3.0 3.2 93 0.4 W 30 37 16 20 - - 1.6
23/08:00am 4.4 -3.4 2.8 89 0.7 W 33 48 18 26 - - 1.6
23/07:55am 4.3 -3.3 2.7 89 0.7 W 32 50 17 27 - - 1.6
23/07:30am 3.9 -3.4 2.7 92 0.5 WNW 30 39 16 21 - - 1.6
23/07:00am 3.8 -4.4 2.6 92 0.5 W 35 44 19 24 - - 1.6
23/06:30am 3.8 -4.5 2.2 89 0.7 W 35 41 19 22 - - 1.6
23/06:00am 3.9 -5.2 2.1 88 0.8 W 39 50 21 27 - - 1.6
23/05:30am 4.0 -5.0 2.2 88 0.8 W 39 57 21 31 - - 1.6
23/05:00am 3.7 -4.6 2.4 91 0.5 W 35 56 19 30 - - 1.6
23/04:30am 3.5 -5.1 2.5 93 0.4 W 37 56 20 30 - - 1.6
23/04:02am 3.9 -5.5 2.3 89 0.7 W 41 59 22 32 - - 1.6
23/04:00am 3.9 -5.5 2.4 90 0.6 WSW 41 56 22 30 - - 1.6
23/03:49am 4.0 -6.3 2.4 89 0.7 W 46 65 25 35 - - 1.6
23/03:30am 4.0 -5.8 2.5 90 0.6 W 43 57 23 31 - - 1.6
23/03:03am 4.0 -5.3 2.8 92 0.5 W 41 61 22 33 - - 1.6
23/03:00am 4.1 -5.2 3.1 93 0.4 W 41 54 22 29 - - 1.6
23/02:30am 4.2 -6.4 3.2 93 0.4 W 48 67 26 36 - - 1.6
23/02:00am 4.3 -5.9 3.4 94 0.4 W 46 65 25 35 - - 1.6
23/01:30am 4.4 -4.4 3.4 93 0.4 W 39 61 21 33 - - 1.6
23/01:29am 4.3 -4.6 3.3 93 0.4 W 39 61 21 33 - - 1.6
23/01:00am 4.2 -5.0 3.3 94 0.4 W 41 56 22 30 - - 1.6
23/12:43am 4.1 -4.3 3.7 97 0.2 W 37 56 20 30 - - 1.6
23/12:30am 4.1 -4.7 3.8 98 0.1 W 39 56 21 30 - - 1.6
23/12:00am 4.4 -4.3 4.0 97 0.2 WNW 39 56 21 30 - - 1.6
 
Date/Time
EST
Temp
°C
App
Temp
°C
Dew
Point
Rel
Hum
%
Delta-T
°C
Wind Press
QNH
hPa
Press
MSL
hPa
Rain
since 9 am
mm
Dir
 
Spd
km/h
Gust
km/h
Spd
kts
Gust
kts
22/11:30pm 4.7 -3.3 3.8 94 0.4 W 35 65 19 35 - - 1.4
22/11:02pm 4.9 -2.6 4.2 95 0.3 W 33 52 18 28 - - 1.4
22/11:00pm 5.0 -2.9 4.3 95 0.3 W 35 52 19 28 - - 1.4
22/10:30pm 4.9 -4.1 4.3 96 0.3 W 41 59 22 32 - - 1.4
22/10:00pm 4.9 -4.1 4.5 97 0.2 W 41 63 22 34 - - 1.2
22/09:30pm 4.9 -5.5 4.2 95 0.3 W 48 67 26 36 - - 1.2
22/09:01pm 5.2 -4.5 3.9 91 0.6 W 44 63 24 34 - - 1.2
22/09:00pm 5.2 -4.5 3.9 91 0.6 W 44 61 24 33 - - 1.2
22/08:30pm 5.1 -2.3 4.2 94 0.4 W 32 50 17 27 - - 1.2
22/08:00pm 5.0 -2.4 4.0 93 0.4 W 32 52 17 28 - - 1.2
22/07:40pm 5.1 -1.9 4.2 94 0.4 WNW 30 54 16 29 - - 1.2
22/07:30pm 5.0 -2.0 4.0 93 0.4 WNW 30 44 16 24 - - 1.2
22/07:21pm 5.0 -3.0 3.7 91 0.6 WNW 35 54 19 29 - - 1.2
22/07:20pm 5.0 -3.4 3.7 91 0.6 WNW 37 54 20 29 - - 1.2
22/07:00pm 5.1 -2.5 4.1 93 0.4 W 33 54 18 29 - - 1.2
22/06:30pm 5.1 -2.2 4.7 97 0.2 W 32 50 17 27 - - 1.2
22/06:21pm 5.2 -1.3 4.9 98 0.1 W 28 46 15 25 - - 1.2
22/06:00pm 5.3 -0.8 5.0 98 0.1 WNW 26 43 14 23 - - 1.2
22/05:30pm 5.7 -1.7 5.0 95 0.3 WSW 33 59 18 32 - - 1.2
22/05:00pm 6.2 -1.7 4.5 89 0.8 WNW 35 74 19 40 - - 1.0
22/04:30pm 6.5 -1.4 4.2 85 1.0 WNW 35 56 19 30 - - 1.0
22/04:11pm 6.5 -0.1 4.2 85 1.0 WNW 28 52 15 28 - - 1.0
22/04:00pm 6.5 -1.0 4.3 86 1.0 WNW 33 46 18 25 - - 1.0
22/03:30pm 6.8 -2.9 4.1 83 1.2 WNW 44 63 24 34 - - 1.0
22/03:00pm 7.1 -2.9 4.2 82 1.3 W 46 70 25 38 - - 1.0
22/02:30pm 7.0 -3.7 4.5 84 1.1 W 50 69 27 37 - - 1.0
22/02:00pm 6.7 -2.4 4.0 83 1.2 WNW 41 63 22 34 - - 1.0
22/01:30pm 6.4 -4.0 4.2 86 1.0 W 48 72 26 39 - - 1.0
22/01:00pm 6.3 -3.2 4.1 86 1.0 W 43 63 23 34 - - 1.0
22/12:30pm 6.6 -3.8 4.4 86 1.0 W 48 69 26 37 - - 1.0
22/12:00pm 6.7 -0.8 6.3 97 0.2 W 35 56 19 30 - - 1.0
22/11:32am 7.2 -0.2 6.8 97 0.2 W 35 54 19 29 - - 1.0
22/11:30am 7.2 -0.2 6.8 97 0.2 W 35 48 19 26 - - 1.0
22/11:00am 7.7 1.0 7.4 98 0.1 W 32 54 17 29 - - 1.0
22/10:59am 7.8 1.5 7.5 98 0.1 W 30 48 16 26 - - 1.0
22/10:30am 8.3 1.6 8.0 98 0.2 W 33 46 18 25 - - 0.2
22/10:06am 7.8 1.1 7.5 98 0.1 W 32 52 17 28 - - 0.2
22/10:00am 7.7 1.4 7.3 97 0.2 WNW 30 44 16 24 - - 0.2
22/09:50am 7.7 1.8 7.3 97 0.2 WNW 28 46 15 25 - - 0.2
22/09:30am 7.7 3.2 7.1 96 0.3 W 20 28 11 15 - - 0.0
22/09:00am 7.7 1.4 7.3 97 0.2 W 30 54 16 29 - - 3.2
22/08:30am 7.9 0.3 7.5 97 0.2 W 37 63 20 34 - - 3.2
22/08:00am 8.1 1.3 7.5 96 0.3 WNW 33 54 18 29 - - 3.2

Other Formats:

Comma delimited format used in spreadsheet applications
http://www.bom.gov.au/fwo/IDT60801/IDT60801.94977.axf

JavaScript Object Notation format (JSON) in row-major order
http://www.bom.gov.au/fwo/IDT60801/IDT60801.94977.json